Time;durP1;ratioP1;P1;durP2;ratioP2;P2;SDS_P1;SDS_P2;PMS_P1;PMS_P2;Temp;Humidity;BMP_temperature;BMP_pressure;BME280_temperature;BME280_humidity;BME280_pressure;Samples;Min_cycle;Max_cycle;Signal;HPM_P1;HPM_P2
2021/04/06 00:01:59;;;;;;;5.25;0.90;;;2.10;92.50;;;;;;5070870;28;20040;-73
2021/04/06 00:04:32;;;;;;;4.72;1.15;;;2.10;92.30;;;;;;5071040;28;20111;-73
2021/04/06 00:07:02;;;;;;;2.97;0.90;;;2.10;92.40;;;;;;5052678;28;20187;-73
2021/04/06 00:09:30;;;;;;;5.15;0.90;;;2.00;91.60;;;;;;5070966;28;20390;-73
2021/04/06 00:11:59;;;;;;;3.15;0.95;;;1.90;91.70;;;;;;5052322;28;20118;-74
2021/04/06 00:14:26;;;;;;;3.35;0.90;;;1.90;91.90;;;;;;5070929;28;20040;-73
2021/04/06 00:16:53;;;;;;;5.43;1.15;;;2.00;92.80;;;;;;5070842;28;20115;-74
2021/04/06 00:19:21;;;;;;;2.58;1.17;;;2.00;92.30;;;;;;5071120;28;20033;-73
2021/04/06 00:21:51;;;;;;;2.88;0.80;;;1.90;92.00;;;;;;5070354;28;20054;-73
2021/04/06 00:24:20;;;;;;;3.53;1.02;;;2.00;92.30;;;;;;5070822;28;20593;-73
2021/04/06 00:26:49;;;;;;;2.65;0.95;;;2.00;92.60;;;;;;5070475;28;20040;-73
2021/04/06 00:29:16;;;;;;;4.25;1.02;;;2.00;92.60;;;;;;5070805;28;20032;-74
2021/04/06 00:31:56;;;;;;;4.80;1.25;;;2.00;92.40;;;;;;5070783;28;20059;-73
2021/04/06 00:34:23;;;;;;;3.65;1.00;;;2.00;92.60;;;;;;5071281;28;20044;-73
2021/04/06 00:36:53;;;;;;;4.95;1.25;;;2.00;92.60;;;;;;5054735;28;20033;-73
2021/04/06 00:39:31;;;;;;;5.05;1.25;;;2.00;92.00;;;;;;5063369;28;20513;-73
2021/04/06 00:42:09;;;;;;;4.22;1.10;;;2.00;92.40;;;;;;5074445;28;20033;-73
2021/04/06 00:44:45;;;;;;;6.85;1.23;;;2.00;92.20;;;;;;5074662;28;20105;-73
2021/04/06 00:47:12;;;;;;;3.03;1.30;;;2.00;91.90;;;;;;5056366;28;20093;-73
2021/04/06 00:49:41;;;;;;;4.68;1.30;;;2.10;92.40;;;;;;5074685;28;20040;-73
2021/04/06 00:52:07;;;;;;;5.13;1.27;;;2.10;91.80;;;;;;5073971;28;20040;-73
2021/04/06 00:54:34;;;;;;;7.18;1.48;;;2.10;92.00;;;;;;5073133;28;20086;-73
2021/04/06 00:57:02;;;;;;;7.85;1.40;;;2.10;91.80;;;;;;5056171;28;20066;-73
2021/04/06 00:59:30;;;;;;;6.72;1.27;;;2.10;92.00;;;;;;5074393;28;20068;-73
2021/04/06 01:02:08;;;;;;;7.70;1.30;;;2.10;91.90;;;;;;5073969;28;20040;-73
2021/04/06 01:04:37;;;;;;;8.18;2.20;;;2.20;91.90;;;;;;5074172;28;20036;-74
2021/04/06 01:07:08;;;;;;;3.67;0.90;;;2.00;91.40;;;;;;5074204;28;20430;-73
2021/04/06 01:10:05;;;;;;;10.23;2.08;;;2.30;93.20;;;;;;5074289;28;20028;-73
2021/04/06 01:12:31;;;;;;;10.25;1.95;;;2.30;92.00;;;;;;5064398;28;20056;-73
2021/04/06 01:14:57;;;;;;;7.03;1.63;;;2.30;92.60;;;;;;5056060;28;20048;-73
2021/04/06 01:17:24;;;;;;;9.30;1.50;;;2.20;92.40;;;;;;5073870;28;20040;-73
2021/04/06 01:19:50;;;;;;;11.73;1.95;;;2.20;92.70;;;;;;5061924;28;20044;-73
2021/04/06 01:22:17;;;;;;;9.55;1.88;;;2.10;92.50;;;;;;5067178;28;20036;-73
2021/04/06 01:24:44;;;;;;;12.27;1.80;;;2.10;92.60;;;;;;5055861;28;20066;-73
2021/04/06 01:27:13;;;;;;;14.52;3.05;;;2.20;92.00;;;;;;5073748;28;20040;-73
2021/04/06 01:29:54;;;;;;;11.85;1.95;;;2.10;92.10;;;;;;5069203;28;20493;-73
2021/04/06 01:32:21;;;;;;;14.40;2.42;;;2.10;92.40;;;;;;5073605;28;20086;-74
2021/04/06 01:34:48;;;;;;;13.38;2.50;;;2.20;92.70;;;;;;5073452;28;20041;-73
2021/04/06 01:37:22;;;;;;;12.25;1.98;;;2.20;91.70;;;;;;5073437;28;20112;-73
2021/04/06 01:39:51;;;;;;;15.07;2.35;;;2.20;91.60;;;;;;5073461;28;20075;-72
2021/04/06 01:42:18;;;;;;;14.38;2.50;;;2.10;91.70;;;;;;5073264;28;20033;-73
2021/04/06 01:44:47;;;;;;;8.50;2.10;;;2.20;92.00;;;;;;5055373;28;20094;-73
2021/04/06 01:47:15;;;;;;;11.48;2.00;;;2.20;91.70;;;;;;5073257;28;20103;-73
2021/04/06 01:49:42;;;;;;;18.33;3.58;;;2.20;91.90;;;;;;5073469;28;20043;-73
2021/04/06 01:52:08;;;;;;;17.75;2.88;;;2.10;91.20;;;;;;5073597;28;20040;-74
2021/04/06 01:54:36;;;;;;;16.45;2.70;;;2.20;91.60;;;;;;5071876;28;20041;-73
2021/04/06 01:57:28;;;;;;;9.82;2.55;;;2.20;91.50;;;;;;5072556;28;20041;-73
2021/04/06 01:59:56;;;;;;;10.45;2.33;;;2.20;91.70;;;;;;5072886;28;20043;-73
2021/04/06 02:02:29;;;;;;;14.18;2.75;;;2.20;91.60;;;;;;5073139;28;20682;-73
2021/04/06 02:05:00;;;;;;;11.57;2.20;;;2.20;91.80;;;;;;5055474;28;20042;-73
2021/04/06 02:07:31;;;;;;;15.02;2.95;;;2.20;91.70;;;;;;5072880;28;20094;-73
2021/04/06 02:09:58;;;;;;;11.00;2.17;;;2.10;91.60;;;;;;5055062;28;20136;-74
2021/04/06 02:12:24;;;;;;;16.10;2.60;;;2.20;91.90;;;;;;5072940;28;20063;-73
2021/04/06 02:15:01;;;;;;;15.65;2.83;;;2.20;92.10;;;;;;5072835;28;20064;-73
2021/04/06 02:17:27;;;;;;;15.30;2.53;;;2.30;91.50;;;;;;5072865;28;20474;-73
2021/04/06 02:19:52;;;;;;;10.50;2.22;;;2.30;90.60;;;;;;5060335;28;20037;-72
2021/04/06 02:22:20;;;;;;;13.38;2.45;;;2.30;91.80;;;;;;5069294;28;20033;-73
2021/04/06 02:24:53;;;;;;;13.95;2.50;;;2.30;91.20;;;;;;5072629;28;20040;-73
2021/04/06 02:27:27;;;;;;;18.27;3.10;;;2.30;90.80;;;;;;5072954;28;20462;-73
2021/04/06 02:29:57;;;;;;;13.85;2.75;;;2.20;91.00;;;;;;5072863;28;20109;-73
2021/04/06 02:32:27;;;;;;;11.82;2.10;;;2.10;90.00;;;;;;5072509;28;20024;-73
2021/04/06 02:34:56;;;;;;;15.55;2.65;;;2.10;91.10;;;;;;5054146;28;20439;-73
2021/04/06 02:37:30;;;;;;;11.82;2.08;;;2.20;92.00;;;;;;5072545;28;20033;-73
2021/04/06 02:39:59;;;;;;;9.48;2.28;;;2.40;92.10;;;;;;5072317;28;20033;-73
2021/04/06 02:42:33;;;;;;;14.20;2.15;;;2.60;90.70;;;;;;5072556;28;20040;-73
2021/04/06 02:45:07;;;;;;;16.23;2.22;;;2.50;89.30;;;;;;5071818;28;20036;-73
2021/04/06 02:47:36;;;;;;;12.50;2.30;;;2.40;89.90;;;;;;5072461;28;20559;-73
2021/04/06 02:50:04;;;;;;;12.20;2.10;;;2.40;90.90;;;;;;5072111;28;20598;-74
2021/04/06 02:52:29;;;;;;;13.43;2.83;;;2.30;88.40;;;;;;5034655;28;20497;-74
2021/04/06 02:54:55;;;;;;;11.82;2.50;;;2.20;88.50;;;;;;5059321;28;20148;-74
2021/04/06 02:57:23;;;;;;;11.88;2.17;;;2.20;90.30;;;;;;5070363;28;20032;-73
2021/04/06 02:59:50;;;;;;;11.07;2.28;;;2.10;90.20;;;;;;5061134;28;20144;-73
2021/04/06 03:02:16;;;;;;;12.40;2.13;;;2.10;91.30;;;;;;5070221;28;20119;-73
2021/04/06 03:04:44;;;;;;;12.77;2.20;;;2.10;90.80;;;;;;5072102;28;20070;-73
2021/04/06 03:07:26;;;;;;;8.27;1.85;;;2.10;91.40;;;;;;5071707;28;20033;-73
2021/04/06 03:09:53;;;;;;;13.52;2.20;;;2.10;91.60;;;;;;5071455;28;20037;-73
2021/04/06 03:12:19;;;;;;;11.32;2.15;;;2.10;91.10;;;;;;5071445;28;20037;-73
2021/04/06 03:14:49;;;;;;;10.68;1.58;;;2.10;91.00;;;;;;5071810;28;20127;-73
2021/04/06 03:17:15;;;;;;;9.02;2.13;;;2.30;92.50;;;;;;5053534;28;20048;-73
2021/04/06 03:19:43;;;;;;;15.65;3.20;;;2.50;91.70;;;;;;5060954;28;20037;-74
2021/04/06 03:22:09;;;;;;;16.63;3.60;;;2.60;89.90;;;;;;5066233;28;20036;-73
2021/04/06 03:27:04;;;;;;;16.15;3.42;;;2.30;89.50;;;;;;5022531;28;20057;-74
2021/04/06 03:29:30;;;;;;;15.02;3.60;;;2.20;90.80;;;;;;5018631;28;20113;-74
2021/04/06 03:31:57;;;;;;;12.13;2.40;;;2.10;91.10;;;;;;5026752;28;20038;-73
2021/04/06 03:34:29;;;;;;;14.70;2.72;;;2.10;91.10;;;;;;5012333;28;20038;-73
2021/04/06 03:36:56;;;;;;;14.80;2.92;;;2.10;91.40;;;;;;5030946;28;20042;-73
2021/04/06 03:39:22;;;;;;;11.48;2.55;;;2.10;90.80;;;;;;5031624;28;20438;-74
2021/04/06 03:41:47;;;;;;;12.20;3.38;;;2.00;90.60;;;;;;5030901;28;20072;-73
2021/04/06 03:44:13;;;;;;;12.38;2.33;;;2.00;90.60;;;;;;5011766;28;20096;-73
2021/04/06 03:46:41;;;;;;;11.48;2.63;;;2.00;90.00;;;;;;5024844;28;20041;-74
2021/04/06 03:49:22;;;;;;;16.70;3.33;;;2.10;92.80;;;;;;5031492;28;20041;-73
2021/04/06 03:51:49;;;;;;;13.32;2.35;;;2.10;91.50;;;;;;5031098;28;20037;-74
2021/04/06 03:54:34;;;;;;;11.30;2.10;;;2.10;90.40;;;;;;5031283;28;20095;-73
2021/04/06 03:57:19;;;;;;;11.18;2.53;;;2.10;91.40;;;;;;5035059;28;20032;-74
2021/04/06 03:59:44;;;;;;;14.02;2.60;;;2.20;90.30;;;;;;5033318;28;20045;-73
2021/04/06 04:02:10;;;;;;;10.85;2.30;;;2.10;90.40;;;;;;5021611;28;20060;-74
2021/04/06 04:04:37;;;;;;;13.38;2.80;;;2.10;88.80;;;;;;5031220;28;20128;-74
2021/04/06 04:07:03;;;;;;;12.23;2.85;;;2.00;90.80;;;;;;5037168;28;20068;-74
2021/04/06 04:09:29;;;;;;;15.35;2.65;;;1.90;90.20;;;;;;5049739;28;20037;-73
2021/04/06 04:11:55;;;;;;;15.48;2.97;;;1.80;90.50;;;;;;5043705;28;20057;-73
2021/04/06 04:14:20;;;;;;;11.98;2.05;;;1.80;91.60;;;;;;5034660;28;20398;-73
2021/04/06 04:16:46;;;;;;;14.55;2.47;;;1.80;91.40;;;;;;5030940;28;20053;-74
2021/04/06 04:19:11;;;;;;;12.27;2.30;;;1.80;91.80;;;;;;5030955;28;20479;-73
2021/04/06 04:21:38;;;;;;;15.10;2.45;;;1.80;91.90;;;;;;5029797;28;20041;-73
2021/04/06 04:24:04;;;;;;;12.38;2.70;;;1.80;91.30;;;;;;5024475;28;20064;-73
2021/04/06 04:26:29;;;;;;;14.38;3.40;;;1.80;92.60;;;;;;5047394;28;20057;-73
2021/04/06 04:28:55;;;;;;;11.40;2.17;;;1.80;90.70;;;;;;5031034;28;20403;-74
2021/04/06 04:31:21;;;;;;;13.25;2.63;;;1.70;92.30;;;;;;5030552;28;20057;-73
2021/04/06 04:33:46;;;;;;;13.00;2.40;;;1.70;90.00;;;;;;5031481;28;20042;-73
2021/04/06 04:36:12;;;;;;;11.80;2.10;;;1.70;91.20;;;;;;5012944;28;20053;-73
2021/04/06 04:38:38;;;;;;;10.95;2.35;;;1.80;93.30;;;;;;5029497;28;20088;-74
2021/04/06 04:41:04;;;;;;;10.43;2.55;;;1.80;93.40;;;;;;5030299;28;20041;-74
2021/04/06 04:43:29;;;;;;;8.52;1.70;;;1.80;92.80;;;;;;5030673;28;20140;-74
2021/04/06 04:45:55;;;;;;;11.70;2.35;;;1.70;91.90;;;;;;5030281;28;20091;-73
2021/04/06 04:48:21;;;;;;;12.32;2.65;;;1.80;93.30;;;;;;5042772;28;20037;-74
2021/04/06 04:50:46;;;;;;;11.82;2.63;;;1.80;92.60;;;;;;5048857;28;20163;-73
2021/04/06 04:53:13;;;;;;;15.80;2.80;;;1.80;93.30;;;;;;5030752;28;20038;-74
2021/04/06 04:55:38;;;;;;;13.13;2.30;;;1.70;90.70;;;;;;5033700;28;20609;-73
2021/04/06 04:58:04;;;;;;;14.18;2.45;;;1.70;92.70;;;;;;5028331;28;20116;-73
2021/04/06 05:00:30;;;;;;;14.18;2.60;;;1.80;92.90;;;;;;5033824;28;20041;-73
2021/04/06 05:02:55;;;;;;;10.60;2.45;;;1.80;93.00;;;;;;5030332;28;20061;-73
2021/04/06 05:05:21;;;;;;;11.45;2.30;;;1.90;93.10;;;;;;5012590;28;20064;-73
2021/04/06 05:07:47;;;;;;;14.35;3.05;;;1.80;90.10;;;;;;5017046;28;20060;-72
2021/04/06 05:10:15;;;;;;;11.80;1.90;;;1.80;90.40;;;;;;5050425;28;20037;-72
2021/04/06 05:12:42;;;;;;;11.88;2.13;;;1.70;90.30;;;;;;5027494;28;20459;-73
2021/04/06 05:15:09;;;;;;;11.77;2.67;;;1.90;92.60;;;;;;5029761;28;20106;-74
2021/04/06 05:17:35;;;;;;;5.85;1.58;;;1.90;88.90;;;;;;5030104;28;20038;-72
2021/04/06 05:20:00;;;;;;;11.55;2.33;;;2.00;89.10;;;;;;5029786;28;20105;-72
2021/04/06 05:22:26;;;;;;;7.97;1.55;;;2.20;92.40;;;;;;5033258;28;20124;-73
2021/04/06 05:24:52;;;;;;;10.15;1.98;;;2.30;91.00;;;;;;5034048;28;20069;-72
2021/04/06 05:27:18;;;;;;;8.43;1.40;;;2.30;89.50;;;;;;5049523;28;20037;-72
2021/04/06 05:29:44;;;;;;;9.98;1.60;;;2.30;91.80;;;;;;5042548;28;20648;-72
2021/04/06 05:32:10;;;;;;;9.15;1.70;;;2.20;80.70;;;;;;5051305;28;20489;-73
2021/04/06 05:34:35;;;;;;;6.22;1.30;;;2.20;86.90;;;;;;5033459;28;20056;-72
2021/04/06 05:37:01;;;;;;;7.25;1.42;;;2.10;87.60;;;;;;5015684;28;20098;-72
2021/04/06 05:39:27;;;;;;;6.28;1.58;;;2.00;83.30;;;;;;5031882;28;20041;-72
2021/04/06 05:41:53;;;;;;;5.70;1.58;;;2.00;82.40;;;;;;5028257;28;20041;-72
2021/04/06 05:44:19;;;;;;;7.45;1.42;;;1.90;88.20;;;;;;5020830;28;20450;-73
2021/04/06 05:46:49;;;;;;;6.35;1.33;;;1.90;85.80;;;;;;5032351;28;20048;-72
2021/04/06 05:49:25;;;;;;;7.80;1.70;;;1.80;82.30;;;;;;5033248;28;20116;-73
2021/04/06 05:51:51;;;;;;;6.65;1.23;;;1.90;86.10;;;;;;5016007;28;20486;-73
2021/04/06 05:54:17;;;;;;;6.93;1.35;;;1.90;83.90;;;;;;5033119;28;20033;-72
2021/04/06 05:56:43;;;;;;;4.30;1.55;;;2.10;89.70;;;;;;5049206;28;20033;-73
2021/04/06 05:59:09;;;;;;;7.28;1.40;;;2.30;92.20;;;;;;5045504;28;20037;-72
2021/04/06 06:01:43;;;;;;;7.00;1.35;;;2.30;84.40;;;;;;5033057;28;20067;-73
2021/04/06 06:04:11;;;;;;;6.15;1.50;;;2.30;88.90;;;;;;5048881;28;20106;-72
2021/04/06 06:06:37;;;;;;;4.88;1.27;;;2.50;90.20;;;;;;5033059;28;20037;-72
2021/04/06 06:09:05;;;;;;;5.57;1.48;;;2.70;90.50;;;;;;5036659;28;20418;-72
2021/04/06 06:11:31;;;;;;;9.95;2.53;;;2.80;88.60;;;;;;5013573;28;20030;-73
2021/04/06 06:13:57;;;;;;;6.20;1.60;;;3.40;86.00;;;;;;5013305;28;20034;-72
2021/04/06 06:16:27;;;;;;;7.88;1.73;;;3.70;87.50;;;;;;5039417;28;20044;-73
2021/04/06 06:19:05;;;;;;;5.47;1.50;;;3.60;87.20;;;;;;5047571;28;20029;-73
2021/04/06 06:21:38;;;;;;;5.43;1.48;;;3.50;88.70;;;;;;5032952;28;20390;-72
2021/04/06 06:24:05;;;;;;;7.70;1.45;;;3.20;83.80;;;;;;5032448;28;20105;-72
2021/04/06 06:26:31;;;;;;;4.47;1.30;;;3.20;86.40;;;;;;5032797;28;20132;-72
2021/04/06 06:29:29;;;;;;;6.28;1.20;;;3.20;87.20;;;;;;5032762;28;20116;-72
2021/04/06 06:31:58;;;;;;;6.38;1.38;;;3.20;83.80;;;;;;5016856;28;20060;-72
2021/04/06 06:34:37;;;;;;;6.63;1.50;;;3.70;84.40;;;;;;5014466;28;20442;-72
2021/04/06 06:37:04;;;;;;;7.68;1.73;;;4.50;85.30;;;;;;5012911;28;20494;-72
2021/04/06 06:39:30;;;;;;;5.13;1.95;;;5.20;81.00;;;;;;5051807;28;20079;-72
2021/04/06 06:42:17;;;;;;;7.28;1.77;;;5.90;74.70;;;;;;5014780;28;20048;-72
2021/04/06 06:44:43;;;;;;;8.65;1.90;;;6.90;70.10;;;;;;5030939;28;20042;-73
2021/04/06 06:47:23;;;;;;;6.10;1.65;;;7.60;71.30;;;;;;5031559;28;20063;-73
2021/04/06 06:49:53;;;;;;;4.03;1.25;;;8.30;70.90;;;;;;5031356;28;20034;-72
2021/04/06 06:52:21;;;;;;;5.40;1.52;;;9.10;69.00;;;;;;5031298;28;20450;-73
2021/04/06 06:54:47;;;;;;;5.32;2.20;;;10.10;63.30;;;;;;5024931;28;20041;-73
2021/04/06 06:57:15;;;;;;;6.20;1.33;;;10.00;58.80;;;;;;5032408;28;20066;-73
2021/04/06 06:59:44;;;;;;;8.27;1.58;;;10.30;60.30;;;;;;5030868;28;20414;-73
2021/04/06 07:02:27;;;;;;;4.75;1.40;;;10.50;60.60;;;;;;5049205;28;20037;-73
2021/04/06 07:05:08;;;;;;;4.00;1.55;;;10.70;58.60;;;;;;5031436;28;20491;-73
2021/04/06 07:08:01;;;;;;;3.30;0.85;;;11.20;57.40;;;;;;5031737;28;20057;-73
2021/04/06 07:10:39;;;;;;;2.40;0.88;;;10.80;56.60;;;;;;5015311;28;20506;-73
2021/04/06 07:13:21;;;;;;;4.28;1.05;;;9.50;53.90;;;;;;5030728;28;20045;-73
2021/04/06 07:15:48;;;;;;;6.25;1.67;;;9.30;58.80;;;;;;5031086;28;20049;-73
2021/04/06 07:18:17;;;;;;;4.43;1.20;;;9.20;58.70;;;;;;5027978;28;20037;-73
2021/04/06 07:21:01;;;;;;;4.63;1.17;;;8.90;57.90;;;;;;5029964;28;20108;-73
2021/04/06 07:23:35;;;;;;;7.22;1.50;;;8.80;55.50;;;;;;5030777;28;20034;-74
2021/04/06 07:26:08;;;;;;;4.32;0.82;;;8.70;60.30;;;;;;5031335;28;20137;-73
2021/04/06 07:28:35;;;;;;;4.00;1.30;;;7.40;58.60;;;;;;5040246;28;20516;-73
2021/04/06 07:31:03;;;;;;;2.85;1.20;;;6.70;66.50;;;;;;5030827;28;20049;-73
2021/04/06 07:33:30;;;;;;;3.95;1.15;;;6.30;65.80;;;;;;5028773;28;20075;-73
2021/04/06 07:35:59;;;;;;;4.88;1.20;;;6.40;69.60;;;;;;5013065;28;20550;-73
2021/04/06 07:38:25;;;;;;;2.30;0.93;;;6.90;66.30;;;;;;5011709;28;20061;-73
2021/04/06 07:40:53;;;;;;;3.30;1.00;;;8.00;64.50;;;;;;5013260;28;20099;-76
2021/04/06 07:43:21;;;;;;;4.65;1.25;;;8.90;62.80;;;;;;5029287;28;20029;-73
2021/04/06 07:45:47;;;;;;;5.47;1.50;;;9.20;60.00;;;;;;5022796;28;20041;-73
2021/04/06 07:48:49;;;;;;;4.00;1.17;;;8.80;61.90;;;;;;5033487;28;20432;-73
2021/04/06 07:51:20;;;;;;;;;;;7.70;60.60;;;;;;5031707;28;20030;-74
2021/04/06 07:54:06;;;;;;;4.38;1.05;;;6.70;61.30;;;;;;5031487;28;19975;-73
2021/04/06 07:56:59;;;;;;;2.92;1.00;;;6.80;67.70;;;;;;5013695;28;20045;-73
2021/04/06 07:59:24;;;;;;;2.03;0.77;;;6.50;64.70;;;;;;5020673;28;20040;-73
2021/04/06 08:01:50;;;;;;;2.97;1.00;;;6.30;69.30;;;;;;5044740;28;20052;-73
2021/04/06 08:04:16;;;;;;;3.55;1.30;;;6.20;70.90;;;;;;5049263;28;20037;-72
2021/04/06 08:06:51;;;;;;;2.05;1.00;;;5.70;67.50;;;;;;5017996;28;20041;-72
2021/04/06 08:09:28;;;;;;;3.20;0.90;;;5.30;68.50;;;;;;5030606;28;20053;-73
2021/04/06 08:12:15;;;;;;;4.30;1.02;;;5.50;73.70;;;;;;5029967;28;20065;-73
2021/04/06 08:14:54;;;;;;;4.25;0.93;;;5.10;66.50;;;;;;5037076;28;20037;-73
2021/04/06 08:17:25;;;;;;;3.65;1.08;;;5.10;70.90;;;;;;5029327;28;20115;-73
2021/04/06 08:20:18;;;;;;;2.83;0.93;;;5.20;76.80;;;;;;5024686;28;20037;-73
2021/04/06 08:22:50;;;;;;;2.85;1.00;;;5.30;72.50;;;;;;5029133;28;20400;-72
2021/04/06 08:25:16;;;;;;;3.13;1.02;;;5.40;70.30;;;;;;5029214;28;20128;-73
2021/04/06 08:27:43;;;;;;;3.47;1.25;;;5.40;72.60;;;;;;5029950;28;20515;-72
2021/04/06 08:30:15;;;;;;;3.63;1.17;;;5.70;70.80;;;;;;5029461;28;20159;-73
2021/04/06 08:32:59;;;;;;;2.20;0.85;;;5.90;71.20;;;;;;5028116;28;20034;-73
2021/04/06 08:35:44;;;;;;;2.50;0.95;;;6.20;71.30;;;;;;5029675;28;20037;-74
2021/04/06 08:38:22;;;;;;;4.57;1.25;;;6.50;70.30;;;;;;5028635;28;20068;-74
2021/04/06 08:41:04;;;;;;;6.25;1.27;;;6.10;71.80;;;;;;5029756;28;20048;-73
2021/04/06 08:43:41;;;;;;;4.13;0.98;;;5.70;72.30;;;;;;5025863;28;20083;-73
2021/04/06 08:46:24;;;;;;;5.35;0.98;;;5.20;74.00;;;;;;5029404;28;21990;-73
2021/04/06 08:48:52;;;;;;;5.00;1.10;;;5.10;76.50;;;;;;5012496;28;20069;-73
2021/04/06 08:51:23;;;;;;;4.75;1.20;;;4.90;77.60;;;;;;5012268;28;20044;-73
2021/04/06 08:54:10;;;;;;;3.08;1.10;;;4.80;77.50;;;;;;5026342;28;20053;-73
2021/04/06 08:57:00;;;;;;;3.40;1.00;;;4.60;79.30;;;;;;5032421;28;20072;-73
2021/04/06 08:59:32;;;;;;;6.03;1.10;;;4.40;78.20;;;;;;5033806;28;20045;-72
2021/04/06 09:02:08;;;;;;;2.70;0.90;;;4.50;80.80;;;;;;5045127;28;20182;-73
2021/04/06 09:04:45;;;;;;;2.92;1.00;;;4.80;82.30;;;;;;5032123;28;20048;-73
2021/04/06 09:07:24;;;;;;;5.35;1.20;;;4.90;78.80;;;;;;5033439;28;20038;-73
2021/04/06 09:09:53;;;;;;;2.42;1.05;;;5.10;79.40;;;;;;5033681;28;20041;-73
2021/04/06 09:12:20;;;;;;;5.18;1.50;;;5.20;77.60;;;;;;5032514;28;20029;-73
2021/04/06 09:14:46;;;;;;;3.75;0.90;;;5.30;76.70;;;;;;5033813;28;20037;-73
2021/04/06 09:17:11;;;;;;;3.67;1.00;;;5.50;77.00;;;;;;5033369;28;20055;-74
2021/04/06 09:19:39;;;;;;;4.18;1.27;;;5.70;76.00;;;;;;5032292;28;20514;-74
2021/04/06 09:22:10;;;;;;;2.75;0.82;;;5.80;77.10;;;;;;5033389;28;20045;-73
2021/04/06 09:24:36;;;;;;;3.22;0.73;;;6.00;75.30;;;;;;5032471;28;20566;-73
2021/04/06 09:27:02;;;;;;;2.47;0.75;;;6.00;75.00;;;;;;5032231;28;20045;-73
2021/04/06 09:29:40;;;;;;;3.55;1.02;;;6.10;76.10;;;;;;5033051;28;20129;-73
2021/04/06 09:32:09;;;;;;;4.13;0.98;;;5.90;74.40;;;;;;5033146;28;20126;-73
2021/04/06 09:34:39;;;;;;;3.67;1.30;;;6.10;75.00;;;;;;5031450;28;20117;-73
2021/04/06 09:37:08;;;;;;;3.20;1.10;;;6.10;74.80;;;;;;5029725;28;20030;-73
2021/04/06 09:39:35;;;;;;;4.53;1.30;;;6.70;73.80;;;;;;5012729;28;20025;-73
2021/04/06 09:42:02;;;;;;;4.03;1.10;;;6.80;73.60;;;;;;5032483;28;20033;-73
2021/04/06 09:44:31;;;;;;;6.35;1.42;;;7.00;70.10;;;;;;5031063;28;20069;-73
2021/04/06 09:47:00;;;;;;;3.83;1.10;;;7.10;69.20;;;;;;5030613;28;20041;-72
2021/04/06 09:49:43;;;;;;;2.92;0.88;;;6.90;67.40;;;;;;5031773;28;20120;-73
2021/04/06 09:52:24;;;;;;;2.95;0.82;;;6.70;66.40;;;;;;5030582;28;20049;-72
2021/04/06 09:54:57;;;;;;;3.42;1.08;;;6.30;71.20;;;;;;5006420;28;20033;-73
2021/04/06 09:57:24;;;;;;;4.22;1.30;;;6.10;72.80;;;;;;5027988;28;20042;-72
2021/04/06 09:59:53;;;;;;;4.03;1.00;;;5.90;74.70;;;;;;5011227;28;20042;-72
2021/04/06 10:02:22;;;;;;;4.07;1.25;;;5.90;75.60;;;;;;5036430;28;20032;-73
2021/04/06 10:04:49;;;;;;;3.17;1.23;;;6.00;74.80;;;;;;5029937;28;20041;-74
2021/04/06 10:07:18;;;;;;;6.25;1.25;;;6.10;73.80;;;;;;5032409;28;20039;-73
2021/04/06 10:09:54;;;;;;;4.25;1.15;;;6.50;73.40;;;;;;5030745;28;20045;-73
2021/04/06 10:12:21;;;;;;;4.90;1.20;;;6.60;72.50;;;;;;5030408;28;20448;-72
2021/04/06 10:14:47;;;;;;;6.90;1.60;;;6.70;73.10;;;;;;5031837;28;20120;-72
2021/04/06 10:17:32;;;;;;;7.90;1.70;;;7.00;69.20;;;;;;5031576;28;20067;-72
2021/04/06 10:20:06;;;;;;;5.78;1.50;;;7.00;69.80;;;;;;5031349;28;20046;-72
2021/04/06 10:22:56;;;;;;;8.23;1.70;;;7.60;69.80;;;;;;5031011;28;20041;-73
2021/04/06 10:25:27;;;;;;;7.57;1.67;;;7.80;68.40;;;;;;5033365;28;20053;-73
2021/04/06 10:27:58;;;;;;;5.05;0.93;;;7.70;67.00;;;;;;5034472;28;20095;-73
2021/04/06 10:30:45;;;;;;;6.90;1.27;;;7.50;68.90;;;;;;5033733;28;20099;-73
2021/04/06 10:33:14;;;;;;;5.05;1.30;;;6.90;70.60;;;;;;5036459;28;20698;-73
2021/04/06 10:35:48;;;;;;;5.20;1.60;;;6.30;72.60;;;;;;5026793;28;20033;-72
2021/04/06 10:38:23;;;;;;;6.43;1.30;;;5.60;72.80;;;;;;5029891;28;20049;-72
2021/04/06 10:41:08;;;;;;;5.57;1.42;;;5.30;73.70;;;;;;5028966;28;20064;-73
2021/04/06 10:43:36;;;;;;;5.90;1.40;;;5.40;76.70;;;;;;5028406;28;20120;-72
2021/04/06 10:46:05;;;;;;;7.40;1.42;;;5.60;76.50;;;;;;5029761;28;20045;-72
2021/04/06 10:48:34;;;;;;;5.53;1.48;;;5.90;75.30;;;;;;5012232;28;20124;-73
2021/04/06 10:51:12;;;;;;;8.25;1.60;;;6.20;75.30;;;;;;5029456;28;20037;-73
2021/04/06 10:53:44;;;;;;;7.75;2.00;;;6.70;73.80;;;;;;5029903;28;20053;-73
2021/04/06 10:56:25;;;;;;;9.48;2.00;;;7.10;72.40;;;;;;5029519;28;20116;-73
2021/04/06 10:58:54;;;;;;;5.18;1.02;;;7.60;68.20;;;;;;5024946;28;20180;-73
2021/04/06 11:01:26;;;;;;;4.15;1.42;;;7.10;65.00;;;;;;5025523;28;20052;-73
2021/04/06 11:03:58;;;;;;;3.22;1.00;;;7.00;68.00;;;;;;5026524;28;20124;-73
2021/04/06 11:06:32;;;;;;;4.38;1.10;;;6.30;70.60;;;;;;5030465;28;20033;-72
2021/04/06 11:09:10;;;;;;;6.00;1.77;;;6.00;74.00;;;;;;5031907;28;20112;-72
2021/04/06 11:11:35;;;;;;;4.95;1.08;;;5.70;72.30;;;;;;5017478;28;20033;-73
2021/04/06 11:14:06;;;;;;;4.90;1.08;;;5.40;74.40;;;;;;5032070;28;20467;-73
2021/04/06 11:16:34;;;;;;;4.88;1.58;;;5.30;75.40;;;;;;5030416;28;20129;-73
2021/04/06 11:19:02;;;;;;;6.13;1.70;;;5.40;74.00;;;;;;5031771;28;20100;-73
2021/04/06 11:21:29;;;;;;;7.10;1.40;;;5.60;73.50;;;;;;5040207;28;20083;-73
2021/04/06 11:23:55;;;;;;;7.07;1.50;;;5.90;75.80;;;;;;5029976;28;20694;-73
2021/04/06 11:26:21;;;;;;;3.97;1.13;;;6.10;71.60;;;;;;5030746;28;20057;-73
2021/04/06 11:28:46;;;;;;;4.15;1.17;;;6.60;69.00;;;;;;5029740;28;20068;-73
2021/04/06 11:31:13;;;;;;;8.52;1.70;;;6.60;65.70;;;;;;5030640;28;20030;-73
2021/04/06 11:33:39;;;;;;;7.82;1.60;;;6.60;65.00;;;;;;5013168;28;21572;-73
2021/04/06 11:36:05;;;;;;;5.97;1.35;;;6.70;61.40;;;;;;5009758;28;20477;-73
2021/04/06 11:38:31;;;;;;;4.20;1.17;;;6.90;66.10;;;;;;5028179;28;20029;-72
2021/04/06 11:40:57;;;;;;;5.97;1.25;;;7.10;65.20;;;;;;5031849;28;20489;-73
2021/04/06 11:43:22;;;;;;;6.03;1.73;;;7.60;64.30;;;;;;5030326;28;20087;-73
2021/04/06 11:45:48;;;;;;;5.25;1.08;;;7.50;62.90;;;;;;5030367;28;20406;-73
2021/04/06 11:48:14;;;;;;;7.85;1.73;;;7.60;63.40;;;;;;5030540;28;20091;-73
2021/04/06 11:50:40;;;;;;;7.10;1.75;;;7.60;56.80;;;;;;5030242;28;20041;-73
2021/04/06 11:53:07;;;;;;;6.43;1.90;;;7.60;61.80;;;;;;5029609;28;20041;-73
2021/04/06 11:55:32;;;;;;;5.45;1.55;;;7.40;59.50;;;;;;5032634;28;20033;-73
2021/04/06 11:57:58;;;;;;;8.13;1.55;;;7.10;55.50;;;;;;5031192;28;20037;-73
2021/04/06 12:00:24;;;;;;;9.25;1.63;;;7.20;55.10;;;;;;5030051;28;20034;-73
2021/04/06 12:02:49;;;;;;;5.38;1.50;;;7.40;60.00;;;;;;5013480;28;20388;-73
2021/04/06 12:05:15;;;;;;;10.10;1.90;;;7.70;56.90;;;;;;5041942;28;20068;-73
2021/04/06 12:07:41;;;;;;;7.88;2.13;;;7.80;53.10;;;;;;5033207;28;20040;-73
2021/04/06 12:10:07;;;;;;;9.13;2.10;;;7.70;51.00;;;;;;5028655;28;20116;-73
2021/04/06 12:12:33;;;;;;;6.88;1.80;;;8.20;56.50;;;;;;5029380;28;20034;-73
2021/04/06 12:14:59;;;;;;;10.45;1.60;;;8.00;55.90;;;;;;5026593;28;20648;-73
2021/04/06 12:17:25;;;;;;;4.93;1.55;;;7.90;60.20;;;;;;5028326;28;20064;-74
2021/04/06 12:19:50;;;;;;;5.70;1.58;;;7.40;58.80;;;;;;5027746;28;20034;-73
2021/04/06 12:22:16;;;;;;;8.57;1.73;;;6.40;63.10;;;;;;5030170;28;20037;-72
2021/04/06 12:24:42;;;;;;;7.45;2.10;;;5.60;66.40;;;;;;5027494;28;20045;-72
2021/04/06 12:27:08;;;;;;;5.88;2.30;;;5.50;68.90;;;;;;5031355;28;20699;-72
2021/04/06 12:29:33;;;;;;;3.67;1.10;;;5.20;67.60;;;;;;5029134;28;20522;-72
2021/04/06 12:31:59;;;;;;;5.65;1.50;;;5.20;70.30;;;;;;5031103;28;20041;-72
2021/04/06 12:34:25;;;;;;;2.05;0.80;;;5.20;69.80;;;;;;5023994;28;20041;-72
2021/04/06 12:36:50;;;;;;;4.30;0.95;;;5.40;71.60;;;;;;5034095;28;20503;-72
2021/04/06 12:39:16;;;;;;;8.75;1.48;;;5.70;67.40;;;;;;5032897;28;20079;-73
2021/04/06 12:41:42;;;;;;;6.00;1.67;;;6.10;69.80;;;;;;5033638;28;20041;-73
2021/04/06 12:44:08;;;;;;;7.75;1.23;;;5.90;62.10;;;;;;5033889;28;20112;-72
2021/04/06 12:46:34;;;;;;;6.68;1.10;;;6.30;64.50;;;;;;5022956;28;20082;-73
2021/04/06 12:49:00;;;;;;;4.82;1.30;;;5.90;63.70;;;;;;5016319;28;20042;-72
2021/04/06 12:51:26;;;;;;;2.88;1.30;;;6.10;70.00;;;;;;5027654;28;20518;-72
2021/04/06 12:53:52;;;;;;;3.17;0.98;;;6.00;64.00;;;;;;5023704;28;20033;-72
2021/04/06 12:56:17;;;;;;;7.32;1.73;;;6.10;70.40;;;;;;5033562;28;20041;-72
2021/04/06 12:58:43;;;;;;;9.35;2.03;;;6.30;67.70;;;;;;5034257;28;20047;-72
2021/04/06 13:01:09;;;;;;;6.35;1.42;;;6.60;68.00;;;;;;5031574;28;20135;-73
2021/04/06 13:03:34;;;;;;;5.57;1.50;;;6.70;67.20;;;;;;5032629;28;20104;-73
2021/04/06 13:06:00;;;;;;;3.58;0.80;;;7.00;69.60;;;;;;5038128;28;20048;-73
2021/04/06 13:08:26;;;;;;;6.57;1.77;;;7.40;70.40;;;;;;5028559;28;20048;-71
2021/04/06 13:10:52;;;;;;;10.40;2.33;;;7.00;62.70;;;;;;5031893;28;20034;-71